Time,TemperatureF,DewpointF,PressureIn,WindDirection,WindDirectionDegrees,WindSpeedMPH,WindSpeedGustMPH,Humidity,HourlyPrecipIn,Conditions,Clouds,dailyrainin,SoftwareType,DateUTC
2013-12-31 00:02:00,3.9,1.1,29.98,NE,45,5.1,5.8,88,0.00,-SN,,0.00,WeatherDisplay:10.37,2013-12-31 07:02:00,
2013-12-31 00:06:00,4.1,1.3,29.98,East,90,5.5,5.8,88,0.00,-SN,,0.00,WeatherDisplay:10.37,2013-12-31 07:06:00,
2013-12-31 00:12:00,4.1,1.3,29.98,SE,135,4.1,4.7,88,0.00,-SN,,0.00,WeatherDisplay:10.37,2013-12-31 07:12:00,
2013-12-31 00:17:00,4.1,1.3,29.97,East,90,4.8,5.8,88,0.00,-SN,,0.00,WeatherDisplay:10.37,2013-12-31 07:17:00,
2013-12-31 00:22:00,4.1,1.3,29.97,East,90,5.2,9.2,88,0.00,-SN,,0.00,WeatherDisplay:10.37,2013-12-31 07:22:00,
2013-12-31 00:27:00,3.9,1.1,29.97,ENE,68,5.5,6.3,88,0.00,-SN,,0.00,WeatherDisplay:10.37,2013-12-31 07:27:00,
2013-12-31 00:32:00,3.9,1.1,29.97,ESE,112,3.9,4.6,88,0.00,-SN,,0.00,WeatherDisplay:10.37,2013-12-31 07:32:00,
2013-12-31 00:37:00,3.7,0.9,29.97,East,90,4.7,5.8,88,0.00,-SN,,0.00,WeatherDisplay:10.37,2013-12-31 07:37:00,
2013-12-31 00:42:00,3.7,0.9,29.97,ENE,68,4.7,5.8,88,0.00,-SN,,0.00,WeatherDisplay:10.37,2013-12-31 07:42:00,
2013-12-31 00:47:00,3.7,0.9,29.97,East,90,5.0,5.8,88,0.00,-SN,,0.00,WeatherDisplay:10.37,2013-12-31 07:47:00,
2013-12-31 00:52:00,3.9,1.1,29.97,ESE,112,4.9,6.9,88,0.00,-SN,,0.00,WeatherDisplay:10.37,2013-12-31 07:52:00,
2013-12-31 00:57:00,3.9,1.1,29.98,ESE,112,3.7,4.6,88,0.00,-SN,,0.00,WeatherDisplay:10.37,2013-12-31 07:57:00,
2013-12-31 01:02:00,3.9,1.1,29.98,East,90,4.6,5.8,88,0.00,-SN,,0.00,WeatherDisplay:10.37,2013-12-31 08:02:00,
2013-12-31 01:07:00,3.9,1.1,29.98,ENE,68,4.0,4.6,88,0.00,-SN,,0.00,WeatherDisplay:10.37,2013-12-31 08:07:00,
2013-12-31 01:12:00,3.9,1.1,29.98,ESE,112,5.6,7.3,88,0.00,-SN,,0.00,WeatherDisplay:10.37,2013-12-31 08:12:00,
2013-12-31 01:17:00,3.9,1.1,29.98,East,90,4.5,5.3,88,0.00,-SN,,0.00,WeatherDisplay:10.37,2013-12-31 08:17:00,
2013-12-31 01:22:00,3.9,1.1,29.98,ESE,112,4.3,4.6,88,0.00,-SN,,0.00,WeatherDisplay:10.37,2013-12-31 08:22:00,
2013-12-31 01:27:00,3.9,1.1,29.98,ESE,112,4.5,5.3,88,0.00,-SN,,0.00,WeatherDisplay:10.37,2013-12-31 08:27:00,
2013-12-31 01:32:00,3.7,0.9,29.97,ENE,68,6.7,8.1,88,0.00,-SN,,0.00,WeatherDisplay:10.37,2013-12-31 08:32:00,
2013-12-31 01:37:00,3.7,0.9,29.97,East,90,4.6,5.8,88,0.00,-SN,,0.00,WeatherDisplay:10.37,2013-12-31 08:37:00,
2013-12-31 01:42:00,3.9,1.4,29.97,ESE,112,3.0,3.7,89,0.00,-SN,,0.00,WeatherDisplay:10.37,2013-12-31 08:42:00,
2013-12-31 01:47:00,3.7,1.2,29.97,East,90,6.0,8.1,89,0.00,-SN,,0.00,WeatherDisplay:10.37,2013-12-31 08:47:00,
2013-12-31 01:52:00,3.7,1.2,29.98,ESE,112,6.3,6.9,89,0.00,-SN,,0.00,WeatherDisplay:10.37,2013-12-31 08:52:00,
2013-12-31 01:57:00,3.6,1.1,29.98,East,90,5.0,6.9,89,0.00,-SN,,0.00,WeatherDisplay:10.37,2013-12-31 08:57:00,
2013-12-31 02:02:00,3.6,1.1,29.98,ESE,112,3.9,5.8,89,0.00,-SN,,0.00,WeatherDisplay:10.37,2013-12-31 09:02:00,
2013-12-31 02:07:00,3.6,1.1,29.98,ESE,112,4.8,5.8,89,0.00,-SN,,0.00,WeatherDisplay:10.37,2013-12-31 09:07:00,
2013-12-31 02:12:00,3.6,1.1,29.98,ESE,112,3.8,5.8,89,0.00,-SN,,0.00,WeatherDisplay:10.37,2013-12-31 09:12:00,
2013-12-31 02:17:00,3.6,1.1,29.98,ESE,112,5.6,5.8,89,0.00,-SN,,0.00,WeatherDisplay:10.37,2013-12-31 09:17:00,
2013-12-31 02:22:00,3.6,1.1,29.98,ESE,112,4.3,5.8,89,0.00,-SN,,0.00,WeatherDisplay:10.37,2013-12-31 09:22:00,
2013-12-31 02:27:00,3.6,1.1,29.98,East,90,5.4,6.8,89,0.00,-SN,,0.00,WeatherDisplay:10.37,2013-12-31 09:27:00,
2013-12-31 02:32:00,3.4,0.9,29.98,East,90,4.7,4.7,89,0.00,-SN,,0.00,WeatherDisplay:10.37,2013-12-31 09:32:00,
2013-12-31 02:37:00,3.6,1.1,29.98,East,90,5.6,7.3,89,0.00,-SN,,0.00,WeatherDisplay:10.37,2013-12-31 09:37:00,
2013-12-31 02:42:00,3.6,1.1,29.98,NE,45,5.4,6.8,89,0.00,-SN,,0.00,WeatherDisplay:10.37,2013-12-31 09:42:00,
2013-12-31 02:47:00,3.4,0.6,29.98,NE,45,4.5,6.3,88,0.00,-SN,,0.00,WeatherDisplay:10.37,2013-12-31 09:47:00,
2013-12-31 02:52:00,3.4,0.6,29.98,NE,45,6.3,9.2,88,0.00,-SN,,0.00,WeatherDisplay:10.37,2013-12-31 09:52:00,
2013-12-31 02:57:00,2.7,0.0,29.98,ENE,68,7.0,8.1,88,0.00,-SN,,0.00,WeatherDisplay:10.37,2013-12-31 09:57:00,
2013-12-31 03:02:00,2.3,-0.4,29.98,ENE,68,6.4,7.8,88,0.00,-SN,,0.00,WeatherDisplay:10.37,2013-12-31 10:02:00,
2013-12-31 03:07:00,2.3,-0.4,29.98,ENE,68,7.3,8.8,88,0.00,-SN,,0.00,WeatherDisplay:10.37,2013-12-31 10:07:00,
2013-12-31 03:12:00,2.1,-0.6,29.98,ENE,68,7.3,10.4,88,0.00,-SN,,0.00,WeatherDisplay:10.37,2013-12-31 10:12:00,
2013-12-31 03:17:00,1.9,-0.8,29.97,NE,45,7.1,8.8,88,0.00,-SN,,0.00,WeatherDisplay:10.37,2013-12-31 10:17:00,
2013-12-31 03:22:00,1.6,-1.1,29.97,NE,45,5.8,10.4,88,0.00,-SN,,0.00,WeatherDisplay:10.37,2013-12-31 10:22:00,
2013-12-31 03:27:00,1.6,-1.1,29.97,ENE,68,6.2,8.1,88,0.00,-SN,,0.00,WeatherDisplay:10.37,2013-12-31 10:27:00,
2013-12-31 03:32:00,1.8,-0.7,29.97,NE,45,5.6,5.8,89,0.00,-SN,,0.00,WeatherDisplay:10.37,2013-12-31 10:32:00,
2013-12-31 03:37:00,1.6,-1.1,29.97,NE,45,6.4,9.2,88,0.00,-SN,,0.00,WeatherDisplay:10.37,2013-12-31 10:37:00,
2013-12-31 03:42:00,1.4,-1.6,29.96,ENE,68,4.4,5.8,87,0.00,-SN,,0.00,WeatherDisplay:10.37,2013-12-31 10:42:00,
2013-12-31 03:47:00,1.6,-1.1,29.96,NNE,22,4.6,5.8,88,0.00,-SN,,0.00,WeatherDisplay:10.37,2013-12-31 10:47:00,
2013-12-31 03:52:00,1.6,-1.1,29.97,ESE,112,4.2,6.9,88,0.00,-SN,,0.00,WeatherDisplay:10.37,2013-12-31 10:52:00,
2013-12-31 03:57:00,1.6,-1.1,29.97,NE,45,7.5,8.8,88,0.00,-SN,,0.00,WeatherDisplay:10.37,2013-12-31 10:57:00,
2013-12-31 04:02:00,1.4,-1.3,29.97,NE,45,5.2,5.8,88,0.00,-SN,,0.00,WeatherDisplay:10.37,2013-12-31 11:02:00,
2013-12-31 04:07:00,1.4,-1.3,29.97,NE,45,6.9,7.8,88,0.00,-SN,,0.00,WeatherDisplay:10.37,2013-12-31 11:07:00,
2013-12-31 04:12:00,1.2,-1.8,29.97,NE,45,5.4,9.2,87,0.00,-SN,,0.00,WeatherDisplay:10.37,2013-12-31 11:12:00,
2013-12-31 04:17:00,0.9,-2.1,29.97,NE,45,7.4,10.4,87,0.00,-SN,,0.00,WeatherDisplay:10.37,2013-12-31 11:17:00,
2013-12-31 04:23:00,0.7,-2.3,29.97,ENE,68,6.8,8.1,87,0.00,-SN,,0.00,WeatherDisplay:10.37,2013-12-31 11:23:00,
2013-12-31 04:28:00,0.7,-2.0,29.97,ENE,68,9.1,9.9,88,0.00,-SN,,0.00,WeatherDisplay:10.37,2013-12-31 11:28:00,
2013-12-31 04:33:00,0.3,-2.7,29.98,NE,45,6.7,10.4,87,0.00,-SN,,0.00,WeatherDisplay:10.37,2013-12-31 11:33:00,
2013-12-31 04:38:00,0.1,-2.9,29.98,NE,45,6.1,8.1,87,0.00,-SN,,0.00,WeatherDisplay:10.37,2013-12-31 11:38:00,
2013-12-31 04:43:00,0.1,-2.9,29.98,East,90,3.2,3.5,87,0.00,-SN,,0.00,WeatherDisplay:10.37,2013-12-31 11:43:00,
2013-12-31 04:48:00,0.0,-2.7,29.98,ENE,68,7.1,8.1,88,0.00,-SN,,0.00,WeatherDisplay:10.37,2013-12-31 11:48:00,
2013-12-31 04:53:00,0.0,-2.7,29.98,ENE,68,4.2,5.8,88,0.00,-SN,,0.00,WeatherDisplay:10.37,2013-12-31 11:53:00,
2013-12-31 04:58:00,-0.4,-3.3,29.98,ENE,68,7.1,10.4,87,0.00,-SN,,0.00,WeatherDisplay:10.37,2013-12-31 11:58:00,
2013-12-31 05:03:00,-0.6,-3.5,29.98,NNE,22,5.7,9.2,87,0.00,-SN,,0.00,WeatherDisplay:10.37,2013-12-31 12:03:00,
2013-12-31 05:08:00,-0.6,-3.3,29.99,ENE,68,7.5,9.2,88,0.00,-SN,,0.00,WeatherDisplay:10.37,2013-12-31 12:08:00,
2013-12-31 05:13:00,-0.6,-3.5,29.99,NE,45,5.5,8.1,87,0.00,-SN,,0.00,WeatherDisplay:10.37,2013-12-31 12:13:00,
2013-12-31 05:18:00,-0.8,-3.7,29.99,NNE,22,5.9,8.1,87,0.00,-SN,,0.00,WeatherDisplay:10.37,2013-12-31 12:18:00,
2013-12-31 05:23:00,-0.8,-3.7,29.99,SE,135,4.8,5.8,87,0.00,-SN,,0.00,WeatherDisplay:10.37,2013-12-31 12:23:00,
2013-12-31 05:28:00,-0.9,-3.8,29.99,ENE,68,7.2,10.4,87,0.00,-SN,,0.00,WeatherDisplay:10.37,2013-12-31 12:28:00,
2013-12-31 05:33:00,-1.1,-4.0,29.99,NNE,22,6.6,8.1,87,0.00,-SN,,0.00,WeatherDisplay:10.37,2013-12-31 12:33:00,
2013-12-31 05:38:00,-1.1,-4.3,29.99,East,90,6.3,6.9,86,0.00,-SN,,0.00,WeatherDisplay:10.37,2013-12-31 12:38:00,
2013-12-31 05:43:00,-1.1,-4.0,30.00,NE,45,5.7,6.9,87,0.00,-SN,,0.00,WeatherDisplay:10.37,2013-12-31 12:43:00,
2013-12-31 05:48:00,-1.1,-4.0,30.00,NE,45,6.9,8.1,87,0.00,-SN,,0.00,WeatherDisplay:10.37,2013-12-31 12:48:00,
2013-12-31 05:53:00,-1.1,-4.3,30.00,NE,45,4.5,5.8,86,0.00,-SN,,0.00,WeatherDisplay:10.37,2013-12-31 12:53:00,
2013-12-31 05:58:00,-1.1,-4.0,30.00,NE,45,4.3,6.9,87,0.00,-SN,,0.00,WeatherDisplay:10.37,2013-12-31 12:58:00,
2013-12-31 06:03:00,-1.1,-3.8,30.00,ESE,112,3.1,3.7,88,0.00,-SN,,0.00,WeatherDisplay:10.37,2013-12-31 13:03:00,
2013-12-31 06:08:00,-1.3,-4.5,30.01,ENE,68,6.9,9.2,86,0.00,-SN,,0.00,WeatherDisplay:10.37,2013-12-31 13:08:00,
2013-12-31 06:13:00,-1.5,-4.7,30.01,East,90,4.9,5.8,86,0.00,-SN,,0.00,WeatherDisplay:10.37,2013-12-31 13:13:00,
2013-12-31 06:18:00,-1.5,-4.4,30.01,East,90,2.9,4.7,87,0.00,-SN,,0.00,WeatherDisplay:10.37,2013-12-31 13:18:00,
2013-12-31 06:23:00,-1.3,-4.2,30.01,ENE,68,4.1,6.8,87,0.00,-SN,,0.00,WeatherDisplay:10.37,2013-12-31 13:23:00,
2013-12-31 06:28:00,-1.7,-4.6,30.01,East,90,3.1,4.6,87,0.00,-SN,,0.00,WeatherDisplay:10.37,2013-12-31 13:28:00,
2013-12-31 06:33:00,-1.5,-4.4,30.02,ENE,68,5.0,6.9,87,0.00,-SN,,0.00,WeatherDisplay:10.37,2013-12-31 13:33:00,
2013-12-31 06:38:00,-1.5,-4.4,30.02,WNW,292,3.9,5.8,87,0.00,-SN,,0.00,WeatherDisplay:10.37,2013-12-31 13:38:00,
2013-12-31 06:43:00,-1.5,-4.4,30.02,East,90,3.8,5.8,87,0.00,-SN,,0.00,WeatherDisplay:10.37,2013-12-31 13:43:00,
2013-12-31 06:48:00,-1.7,-4.6,30.02,NE,45,6.9,8.8,87,0.00,-SN,,0.00,WeatherDisplay:10.37,2013-12-31 13:48:00,
2013-12-31 06:53:00,-1.7,-4.9,30.02,ESE,112,5.1,6.9,86,0.00,-SN,,0.00,WeatherDisplay:10.37,2013-12-31 13:53:00,
2013-12-31 06:58:00,-1.7,-4.6,30.02,East,90,5.6,6.8,87,0.00,-SN,,0.00,WeatherDisplay:10.37,2013-12-31 13:58:00,
2013-12-31 07:03:00,-1.7,-4.6,30.02,ENE,68,3.8,6.3,87,0.00,-SN,,0.00,WeatherDisplay:10.37,2013-12-31 14:03:00,
2013-12-31 07:08:00,-1.5,-4.4,30.02,NE,45,5.9,7.3,87,0.00,-SN,,0.00,WeatherDisplay:10.37,2013-12-31 14:08:00,
2013-12-31 07:13:00,-1.7,-4.6,30.02,ESE,112,5.9,8.1,87,0.00,-SN,,0.00,WeatherDisplay:10.37,2013-12-31 14:13:00,
2013-12-31 07:18:00,-1.8,-4.7,30.02,East,90,5.7,6.9,87,0.00,-SN,,0.00,WeatherDisplay:10.37,2013-12-31 14:18:00,
2013-12-31 07:23:00,-1.7,-4.6,30.02,East,90,4.9,6.3,87,0.00,-SN,,0.00,WeatherDisplay:10.37,2013-12-31 14:23:00,
2013-12-31 07:28:00,-1.8,-4.7,30.02,NNE,22,5.3,6.9,87,0.00,-SN,,0.00,WeatherDisplay:10.37,2013-12-31 14:28:00,
2013-12-31 07:33:00,-1.8,-4.7,30.02,ENE,68,3.1,5.8,87,0.00,-SN,,0.00,WeatherDisplay:10.37,2013-12-31 14:33:00,
2013-12-31 07:38:00,-1.8,-4.7,30.02,ESE,112,5.5,5.8,87,0.00,-SN,,0.00,WeatherDisplay:10.37,2013-12-31 14:38:00,
2013-12-31 07:43:00,-2.0,-4.9,30.02,ESE,112,5.0,5.8,87,0.00,-SN,,0.00,WeatherDisplay:10.37,2013-12-31 14:43:00,
2013-12-31 07:48:00,-2.0,-4.9,30.02,ENE,68,3.7,3.7,87,0.00,-SN,,0.00,WeatherDisplay:10.37,2013-12-31 14:48:00,
2013-12-31 07:53:00,-1.8,-4.7,30.03,ENE,68,4.2,5.8,87,0.00,-SN,,0.00,WeatherDisplay:10.37,2013-12-31 14:53:00,
2013-12-31 07:58:00,-2.0,-4.9,30.03,SE,135,5.0,6.9,87,0.00,-SN,,0.00,WeatherDisplay:10.37,2013-12-31 14:58:00,
2013-12-31 08:03:00,-2.0,-4.9,30.03,NE,45,4.9,6.8,87,0.00,-SN,,0.00,WeatherDisplay:10.37,2013-12-31 15:03:00,
2013-12-31 08:08:00,-2.0,-4.9,30.03,ESE,112,5.8,8.1,87,0.00,-SN,,0.00,WeatherDisplay:10.37,2013-12-31 15:08:00,
2013-12-31 08:13:00,-2.0,-4.9,30.03,East,90,5.6,6.9,87,0.00,-SN,,0.00,WeatherDisplay:10.37,2013-12-31 15:13:00,
2013-12-31 08:18:00,-1.7,-4.6,30.04,ENE,68,3.8,4.6,87,0.00,-SN,,0.00,WeatherDisplay:10.37,2013-12-31 15:18:00,
2013-12-31 08:23:00,-1.7,-4.6,30.04,ESE,112,5.0,5.8,87,0.00,-SN,,0.00,WeatherDisplay:10.37,2013-12-31 15:23:00,
2013-12-31 08:28:00,-2.0,-4.9,30.04,ENE,68,7.0,8.1,87,0.00,-SN,,0.00,WeatherDisplay:10.37,2013-12-31 15:28:00,
2013-12-31 08:33:00,-2.0,-4.9,30.04,East,90,4.6,5.8,87,0.00,-SN,,0.00,WeatherDisplay:10.37,2013-12-31 15:33:00,
2013-12-31 08:38:00,-2.0,-4.9,30.04,East,90,6.8,8.3,87,0.00,-SN,,0.00,WeatherDisplay:10.37,2013-12-31 15:38:00,
2013-12-31 08:43:00,-2.0,-4.9,30.04,East,90,6.5,8.1,87,0.00,-SN,,0.00,WeatherDisplay:10.37,2013-12-31 15:43:00,
2013-12-31 08:48:00,-1.7,-4.9,30.04,ESE,112,6.8,9.2,86,0.00,-SN,,0.00,WeatherDisplay:10.37,2013-12-31 15:48:00,
2013-12-31 08:53:00,-1.7,-4.9,30.05,ESE,112,5.0,6.3,86,0.00,-SN,,0.00,WeatherDisplay:10.37,2013-12-31 15:53:00,
2013-12-31 08:58:00,-1.3,-4.5,30.05,SSE,158,6.7,7.3,86,0.00,-SN,,0.00,WeatherDisplay:10.37,2013-12-31 15:58:00,
2013-12-31 09:03:00,-1.5,-4.7,30.05,SE,135,7.5,7.5,86,0.00,-SN,,0.00,WeatherDisplay:10.37,2013-12-31 16:03:00,
2013-12-31 09:08:00,-1.3,-4.7,30.06,SE,135,5.0,5.8,85,0.00,-SN,,0.00,WeatherDisplay:10.37,2013-12-31 16:08:00,
2013-12-31 09:13:00,-1.3,-4.7,30.06,ESE,112,5.9,6.9,85,0.00,-SN,,0.00,WeatherDisplay:10.37,2013-12-31 16:13:00,
2013-12-31 09:18:00,-0.9,-4.3,30.06,ESE,112,5.0,6.3,85,0.00,-SN,,0.00,WeatherDisplay:10.37,2013-12-31 16:18:00,
2013-12-31 09:23:00,-0.8,-4.2,30.06,ESE,112,7.8,10.4,85,0.00,-SN,,0.00,WeatherDisplay:10.37,2013-12-31 16:23:00,
2013-12-31 09:28:00,-0.8,-4.5,30.06,ESE,112,8.0,10.4,84,0.00,-SN,,0.00,WeatherDisplay:10.37,2013-12-31 16:28:00,
2013-12-31 09:33:00,-0.6,-4.3,30.07,ESE,112,5.8,8.1,84,0.00,-SN,,0.00,WeatherDisplay:10.37,2013-12-31 16:33:00,
2013-12-31 09:38:00,-0.8,-4.5,30.07,SE,135,4.6,6.9,84,0.00,-SN,,0.00,WeatherDisplay:10.37,2013-12-31 16:38:00,
2013-12-31 09:43:00,-0.6,-4.0,30.07,East,90,6.6,6.6,85,0.00,-SN,,0.00,WeatherDisplay:10.37,2013-12-31 16:43:00,
2013-12-31 09:48:00,-0.2,-3.9,30.07,ESE,112,5.3,8.1,84,0.00,-SN,,0.00,WeatherDisplay:10.37,2013-12-31 16:48:00,
2013-12-31 09:53:00,0.0,-3.9,30.08,ESE,112,6.5,8.1,83,0.00,-SN,,0.00,WeatherDisplay:10.37,2013-12-31 16:53:00,
2013-12-31 09:58:00,0.0,-4.2,30.08,SE,135,9.3,10.4,82,0.00,-SN,,0.00,WeatherDisplay:10.37,2013-12-31 16:58:00,
2013-12-31 10:03:00,-0.2,-4.1,30.08,ESE,112,6.6,6.9,83,0.00,OVC,,0.00,WeatherDisplay:10.37,2013-12-31 17:03:00,
2013-12-31 10:09:00,0.0,-3.9,30.08,SE,135,7.2,9.2,83,0.00,OVC,,0.00,WeatherDisplay:10.37,2013-12-31 17:09:00,
2013-12-31 10:14:00,-0.2,-4.1,30.08,ESE,112,6.1,10.4,83,0.00,OVC,,0.00,WeatherDisplay:10.37,2013-12-31 17:14:00,
2013-12-31 10:19:00,0.1,-3.8,30.07,SE,135,7.6,10.4,83,0.00,OVC,,0.00,WeatherDisplay:10.37,2013-12-31 17:19:00,
2013-12-31 10:24:00,-0.2,-4.1,30.07,ESE,112,7.6,10.4,83,0.00,OVC,,0.00,WeatherDisplay:10.37,2013-12-31 17:24:00,
2013-12-31 10:29:00,-0.2,-4.1,30.06,ESE,112,10.6,13.8,83,0.00,OVC,,0.00,WeatherDisplay:10.37,2013-12-31 17:29:00,
2013-12-31 10:34:00,-0.2,-4.1,30.06,ESE,112,9.0,10.4,83,0.00,OVC,,0.00,WeatherDisplay:10.37,2013-12-31 17:34:00,
2013-12-31 10:39:00,-0.2,-4.1,30.06,ESE,112,7.9,10.4,83,0.00,OVC,,0.00,WeatherDisplay:10.37,2013-12-31 17:39:00,
2013-12-31 10:44:00,-0.4,-4.6,30.05,SE,135,9.3,9.3,82,0.00,OVC,,0.00,WeatherDisplay:10.37,2013-12-31 17:44:00,
2013-12-31 10:49:00,0.0,-3.9,30.05,SE,135,7.2,8.3,83,0.00,OVC,,0.00,WeatherDisplay:10.37,2013-12-31 17:49:00,
2013-12-31 10:54:00,0.3,-3.9,30.06,ESE,112,8.2,10.4,82,0.00,OVC,,0.00,WeatherDisplay:10.37,2013-12-31 17:54:00,
2013-12-31 10:59:00,0.0,-4.2,30.06,ESE,112,7.8,10.4,82,0.00,OVC,,0.00,WeatherDisplay:10.37,2013-12-31 17:59:00,
2013-12-31 11:04:00,-0.2,-4.4,30.06,ESE,112,9.6,10.4,82,0.00,OVC,,0.00,WeatherDisplay:10.37,2013-12-31 18:04:00,
2013-12-31 11:09:00,0.1,-4.1,30.05,ESE,112,8.0,10.4,82,0.00,OVC,,0.00,WeatherDisplay:10.37,2013-12-31 18:09:00,
2013-12-31 11:14:00,0.3,-3.9,30.05,East,90,6.0,6.9,82,0.00,OVC,,0.00,WeatherDisplay:10.37,2013-12-31 18:14:00,
2013-12-31 11:19:00,0.0,-4.4,30.05,ESE,112,8.7,10.4,81,0.00,OVC,,0.00,WeatherDisplay:10.37,2013-12-31 18:19:00,
2013-12-31 11:24:00,0.1,-4.1,30.05,ENE,68,6.2,8.1,82,0.00,OVC,,0.00,WeatherDisplay:10.37,2013-12-31 18:24:00,
2013-12-31 11:29:00,0.5,-3.4,30.05,East,90,5.6,6.9,83,0.00,OVC,,0.00,WeatherDisplay:10.37,2013-12-31 18:29:00,
2013-12-31 11:34:00,0.5,-3.7,30.05,ESE,112,5.4,6.9,82,0.00,OVC,,0.00,WeatherDisplay:10.37,2013-12-31 18:34:00,
2013-12-31 11:39:00,0.1,-4.3,30.05,ESE,112,7.2,8.1,81,0.00,OVC,,0.00,WeatherDisplay:10.37,2013-12-31 18:39:00,
2013-12-31 11:44:00,0.5,-3.4,30.05,SSW,202,5.1,5.8,83,0.00,OVC,,0.00,WeatherDisplay:10.37,2013-12-31 18:44:00,
2013-12-31 11:49:00,0.0,-3.9,30.05,ENE,68,9.4,9.4,83,0.00,OVC,,0.00,WeatherDisplay:10.37,2013-12-31 18:49:00,
2013-12-31 11:54:00,-0.2,-4.1,30.03,ESE,112,8.0,9.2,83,0.00,OVC,,0.00,WeatherDisplay:10.37,2013-12-31 18:54:00,
2013-12-31 11:59:00,-0.2,-4.4,30.03,SE,135,7.7,8.1,82,0.00,OVC,,0.00,WeatherDisplay:10.37,2013-12-31 18:59:00,
2013-12-31 12:04:00,-0.4,-4.6,30.03,ESE,112,8.2,9.2,82,0.00,-SN,,0.00,WeatherDisplay:10.37,2013-12-31 19:04:00,
2013-12-31 12:09:00,-0.4,-4.6,30.03,ENE,68,10.0,10.4,82,0.00,-SN,,0.00,WeatherDisplay:10.37,2013-12-31 19:09:00,
2013-12-31 12:14:00,-0.2,-4.4,30.03,SSE,158,6.2,10.4,82,0.00,-SN,,0.00,WeatherDisplay:10.37,2013-12-31 19:14:00,
2013-12-31 12:19:00,0.0,-4.2,30.03,East,90,6.1,7.3,82,0.00,-SN,,0.00,WeatherDisplay:10.37,2013-12-31 19:19:00,
2013-12-31 12:24:00,0.1,-4.1,30.03,ESE,112,8.0,9.4,82,0.00,-SN,,0.00,WeatherDisplay:10.37,2013-12-31 19:24:00,
2013-12-31 12:29:00,0.0,-4.4,30.03,South,180,7.9,8.3,81,0.00,-SN,,0.00,WeatherDisplay:10.37,2013-12-31 19:29:00,
2013-12-31 12:34:00,-0.4,-4.6,30.03,SE,135,7.8,10.4,82,0.00,-SN,,0.00,WeatherDisplay:10.37,2013-12-31 19:34:00,
2013-12-31 12:39:00,-0.2,-4.4,30.03,ESE,112,7.7,9.4,82,0.00,-SN,,0.00,WeatherDisplay:10.37,2013-12-31 19:39:00,
2013-12-31 12:44:00,0.1,-4.1,30.03,SE,135,6.3,6.9,82,0.00,-SN,,0.00,WeatherDisplay:10.37,2013-12-31 19:44:00,
2013-12-31 12:49:00,0.0,-4.2,30.03,ESE,112,6.7,8.1,82,0.00,-SN,,0.00,WeatherDisplay:10.37,2013-12-31 19:49:00,
2013-12-31 12:54:00,-0.4,-4.6,30.03,ESE,112,9.4,10.4,82,0.00,-SN,,0.00,WeatherDisplay:10.37,2013-12-31 19:54:00,
2013-12-31 12:59:00,-0.6,-4.8,30.03,SE,135,8.4,11.4,82,0.00,-SN,,0.00,WeatherDisplay:10.37,2013-12-31 19:59:00,
2013-12-31 13:04:00,-0.4,-4.6,30.03,ESE,112,7.0,9.2,82,0.00,-SN,,0.00,WeatherDisplay:10.37,2013-12-31 20:04:00,
2013-12-31 13:09:00,-0.6,-4.5,30.03,SE,135,6.7,7.8,83,0.00,-SN,,0.00,WeatherDisplay:10.37,2013-12-31 20:09:00,
2013-12-31 13:14:00,-0.8,-5.0,30.03,ESE,112,8.0,10.4,82,0.00,-SN,,0.00,WeatherDisplay:10.37,2013-12-31 20:14:00,
2013-12-31 13:19:00,-0.6,-4.5,30.03,ESE,112,6.0,6.0,83,0.00,-SN,,0.00,WeatherDisplay:10.37,2013-12-31 20:19:00,
2013-12-31 13:24:00,-0.6,-4.5,30.03,SE,135,8.3,10.4,83,0.00,-SN,,0.00,WeatherDisplay:10.37,2013-12-31 20:24:00,
2013-12-31 13:29:00,-0.8,-4.7,30.02,ESE,112,7.9,9.4,83,0.00,-SN,,0.00,WeatherDisplay:10.37,2013-12-31 20:29:00,
2013-12-31 13:34:00,-0.4,-4.3,30.02,ESE,112,7.9,8.8,83,0.00,-SN,,0.00,WeatherDisplay:10.37,2013-12-31 20:34:00,
2013-12-31 13:39:00,-0.6,-4.5,30.02,SSE,158,9.1,10.4,83,0.00,-SN,,0.00,WeatherDisplay:10.37,2013-12-31 20:39:00,
2013-12-31 13:44:00,-0.2,-4.1,30.02,SE,135,5.9,6.9,83,0.00,-SN,,0.00,WeatherDisplay:10.37,2013-12-31 20:44:00,
2013-12-31 13:49:00,-0.4,-4.3,30.02,ESE,112,7.3,9.9,83,0.00,-SN,,0.00,WeatherDisplay:10.37,2013-12-31 20:49:00,
2013-12-31 13:54:00,-0.6,-4.5,30.01,ENE,68,6.3,6.9,83,0.00,-SN,,0.00,WeatherDisplay:10.37,2013-12-31 20:54:00,
2013-12-31 13:59:00,-0.8,-4.7,30.01,SSE,158,6.5,7.8,83,0.00,-SN,,0.00,WeatherDisplay:10.37,2013-12-31 20:59:00,
2013-12-31 14:04:00,-1.1,-5.0,30.01,ESE,112,7.1,8.1,83,0.00,-SN,,0.00,WeatherDisplay:10.37,2013-12-31 21:04:00,
2013-12-31 14:09:00,-1.1,-5.0,30.02,ESE,112,9.0,10.4,83,0.00,-SN,,0.00,WeatherDisplay:10.37,2013-12-31 21:09:00,
2013-12-31 14:14:00,-1.1,-5.0,30.02,SSE,158,7.6,7.6,83,0.00,-SN,,0.00,WeatherDisplay:10.37,2013-12-31 21:14:00,
2013-12-31 14:19:00,-1.3,-5.0,30.02,ESE,112,5.8,9.2,84,0.00,-SN,,0.00,WeatherDisplay:10.37,2013-12-31 21:19:00,
2013-12-31 14:24:00,-1.3,-5.0,30.02,ENE,68,6.9,9.2,84,0.00,-SN,,0.00,WeatherDisplay:10.37,2013-12-31 21:24:00,
2013-12-31 14:29:00,-1.3,-5.0,30.02,SSE,158,6.6,6.9,84,0.00,-SN,,0.00,WeatherDisplay:10.37,2013-12-31 21:29:00,
2013-12-31 14:34:00,-1.5,-5.2,30.02,ESE,112,6.9,8.1,84,0.00,-SN,,0.00,WeatherDisplay:10.37,2013-12-31 21:34:00,
2013-12-31 14:39:00,-1.5,-4.9,30.02,ESE,112,8.1,8.1,85,0.00,-SN,,0.00,WeatherDisplay:10.37,2013-12-31 21:39:00,
2013-12-31 14:44:00,-1.5,-4.9,30.02,SE,135,7.6,8.1,85,0.00,-SN,,0.00,WeatherDisplay:10.37,2013-12-31 21:44:00,
2013-12-31 14:49:00,-1.5,-4.9,30.02,ESE,112,4.8,9.2,85,0.00,-SN,,0.00,WeatherDisplay:10.37,2013-12-31 21:49:00,
2013-12-31 14:54:00,-1.5,-4.9,30.02,ESE,112,6.9,9.2,85,0.00,-SN,,0.00,WeatherDisplay:10.37,2013-12-31 21:54:00,
2013-12-31 14:59:00,-1.8,-5.2,30.02,East,90,6.7,8.1,85,0.00,-SN,,0.00,WeatherDisplay:10.37,2013-12-31 21:59:00,
2013-12-31 15:04:00,-2.0,-5.2,30.02,ESE,112,6.4,8.1,86,0.00,-SN,,0.00,WeatherDisplay:10.37,2013-12-31 22:04:00,
2013-12-31 15:09:00,-2.0,-5.2,30.02,SE,135,8.1,8.1,86,0.00,-SN,,0.00,WeatherDisplay:10.37,2013-12-31 22:09:00,
2013-12-31 15:14:00,-2.2,-5.4,30.02,ESE,112,5.9,6.9,86,0.00,-SN,,0.00,WeatherDisplay:10.37,2013-12-31 22:14:00,
2013-12-31 15:19:00,-2.4,-5.6,30.02,ESE,112,6.6,6.6,86,0.00,-SN,,0.00,WeatherDisplay:10.37,2013-12-31 22:19:00,
2013-12-31 15:24:00,-2.4,-5.6,30.02,East,90,6.3,6.9,86,0.00,-SN,,0.00,WeatherDisplay:10.37,2013-12-31 22:24:00,
2013-12-31 15:29:00,-2.4,-5.6,30.02,East,90,6.7,8.1,86,0.00,-SN,,0.00,WeatherDisplay:10.37,2013-12-31 22:29:00,
2013-12-31 15:34:00,-2.6,-5.8,30.02,ESE,112,8.4,8.8,86,0.00,-SN,,0.00,WeatherDisplay:10.37,2013-12-31 22:34:00,
2013-12-31 15:40:00,-2.9,-6.0,30.02,ESE,112,9.0,10.9,86,0.00,-SN,,0.00,WeatherDisplay:10.37,2013-12-31 22:40:00,
2013-12-31 15:45:00,-2.9,-6.0,30.03,SE,135,6.9,9.2,86,0.00,-SN,,0.00,WeatherDisplay:10.37,2013-12-31 22:45:00,
2013-12-31 15:50:00,-2.9,-6.0,30.03,SE,135,7.6,7.6,86,0.00,-SN,,0.00,WeatherDisplay:10.37,2013-12-31 22:50:00,
2013-12-31 15:55:00,-2.9,-6.0,30.03,ESE,112,7.0,10.4,86,0.00,-SN,,0.00,WeatherDisplay:10.37,2013-12-31 22:55:00,
2013-12-31 16:00:00,-2.9,-6.0,30.03,East,90,6.7,6.9,86,0.00,-SN,,0.00,WeatherDisplay:10.37,2013-12-31 23:00:00,
2013-12-31 16:05:00,-3.1,-6.2,30.03,East,90,5.8,6.9,86,0.00,-SN,,0.00,WeatherDisplay:10.37,2013-12-31 23:05:00,
2013-12-31 16:10:00,-3.1,-6.2,30.03,ESE,112,6.7,10.4,86,0.00,-SN,,0.00,WeatherDisplay:10.37,2013-12-31 23:10:00,
2013-12-31 16:15:00,-3.3,-6.4,30.03,ESE,112,9.9,10.9,86,0.00,-SN,,0.00,WeatherDisplay:10.37,2013-12-31 23:15:00,
2013-12-31 16:20:00,-3.3,-6.4,30.03,ESE,112,8.4,11.5,86,0.00,-SN,,0.00,WeatherDisplay:10.37,2013-12-31 23:20:00,
2013-12-31 16:25:00,-3.3,-6.4,30.03,ESE,112,9.4,11.4,86,0.00,-SN,,0.00,WeatherDisplay:10.37,2013-12-31 23:25:00,
2013-12-31 16:30:00,-3.3,-6.4,30.02,ESE,112,13.0,13.8,86,0.00,-SN,,0.00,WeatherDisplay:10.37,2013-12-31 23:30:00,
2013-12-31 16:35:00,-3.3,-6.4,30.02,ESE,112,13.0,13.0,86,0.00,-SN,,0.00,WeatherDisplay:10.37,2013-12-31 23:35:00,
2013-12-31 16:40:00,-3.3,-6.4,30.02,SE,135,7.5,8.1,86,0.00,-SN,,0.00,WeatherDisplay:10.37,2013-12-31 23:40:00,
2013-12-31 16:45:00,-3.5,-6.6,30.03,ESE,112,6.6,9.4,86,0.00,OVC,,0.00,WeatherDisplay:10.37,2013-12-31 23:45:00,
2013-12-31 16:50:00,-3.5,-6.6,30.03,ESE,112,6.4,9.2,86,0.00,OVC,,0.00,WeatherDisplay:10.37,2013-12-31 23:50:00,
2013-12-31 16:55:00,-3.5,-6.6,30.03,SE,135,5.7,8.1,86,0.00,OVC,,0.00,WeatherDisplay:10.37,2013-12-31 23:55:00,
2013-12-31 17:00:00,-3.5,-6.6,30.03,ESE,112,10.2,10.4,86,0.00,OVC,,0.00,WeatherDisplay:10.37,2014-01-01 00:00:00,
2013-12-31 17:05:00,-3.5,-6.9,30.04,SE,135,7.6,9.2,85,0.00,-SN,,0.00,WeatherDisplay:10.37,2014-01-01 00:05:00,
2013-12-31 17:10:00,-3.5,-6.9,30.04,ESE,112,6.8,8.8,85,0.00,-SN,,0.00,WeatherDisplay:10.37,2014-01-01 00:10:00,
2013-12-31 17:15:00,-3.5,-6.9,30.04,SE,135,6.9,6.9,85,0.00,-SN,,0.00,WeatherDisplay:10.37,2014-01-01 00:15:00,
2013-12-31 17:20:00,-3.3,-6.7,30.05,ESE,112,6.9,9.2,85,0.00,-SN,,0.00,WeatherDisplay:10.37,2014-01-01 00:20:00,
2013-12-31 17:25:00,-3.3,-6.7,30.05,ESE,112,8.4,9.2,85,0.00,OVC,,0.00,WeatherDisplay:10.37,2014-01-01 00:25:00,
2013-12-31 17:30:00,-3.3,-6.7,30.04,ESE,112,9.7,10.4,85,0.00,OVC,,0.00,WeatherDisplay:10.37,2014-01-01 00:30:00,
2013-12-31 17:35:00,-3.3,-6.7,30.04,ESE,112,6.9,9.2,85,0.00,OVC,,0.00,WeatherDisplay:10.37,2014-01-01 00:35:00,
2013-12-31 17:40:00,-3.1,-6.5,30.04,ESE,112,7.2,8.1,85,0.00,OVC,,0.00,WeatherDisplay:10.37,2014-01-01 00:40:00,
2013-12-31 17:45:00,-3.1,-6.5,30.05,SE,135,7.1,8.1,85,0.00,OVC,,0.00,WeatherDisplay:10.37,2014-01-01 00:45:00,
2013-12-31 17:50:00,-3.1,-6.5,30.05,SSE,158,8.0,12.7,85,0.00,OVC,,0.00,WeatherDisplay:10.37,2014-01-01 00:50:00,
2013-12-31 17:55:00,-3.1,-6.5,30.04,SE,135,8.5,9.2,85,0.00,OVC,,0.00,WeatherDisplay:10.37,2014-01-01 00:55:00,
2013-12-31 18:00:00,-3.1,-6.5,30.04,ESE,112,7.2,9.2,85,0.00,OVC,,0.00,WeatherDisplay:10.37,2014-01-01 01:00:00,
2013-12-31 18:05:00,-3.1,-6.5,30.03,SE,135,6.4,9.2,85,0.00,OVC,,0.00,WeatherDisplay:10.37,2014-01-01 01:05:00,
2013-12-31 18:10:00,-3.1,-6.5,30.03,SSE,158,10.7,12.7,85,0.00,OVC,,0.00,WeatherDisplay:10.37,2014-01-01 01:10:00,
2013-12-31 18:15:00,-3.1,-6.5,30.03,ESE,112,7.5,10.4,85,0.00,OVC,,0.00,WeatherDisplay:10.37,2014-01-01 01:15:00,
2013-12-31 18:20:00,-3.1,-6.5,30.02,ESE,112,11.0,12.7,85,0.00,OVC,,0.00,WeatherDisplay:10.37,2014-01-01 01:20:00,
2013-12-31 18:25:00,-3.3,-6.7,30.02,ESE,112,11.1,12.7,85,0.00,OVC,,0.00,WeatherDisplay:10.37,2014-01-01 01:25:00,
2013-12-31 18:30:00,-3.3,-6.7,30.02,ESE,112,9.3,11.5,85,0.00,OVC,,0.00,WeatherDisplay:10.37,2014-01-01 01:30:00,
2013-12-31 18:35:00,-3.3,-6.7,30.02,SE,135,6.9,11.5,85,0.00,OVC,,0.00,WeatherDisplay:10.37,2014-01-01 01:35:00,
2013-12-31 18:40:00,-3.1,-6.5,30.02,ESE,112,8.0,8.3,85,0.00,OVC,,0.00,WeatherDisplay:10.37,2014-01-01 01:40:00,
2013-12-31 18:45:00,-3.1,-6.5,30.04,ESE,112,7.4,8.1,85,0.00,OVC,,0.00,WeatherDisplay:10.37,2014-01-01 01:45:00,
2013-12-31 18:50:00,-3.1,-6.5,30.04,East,90,6.1,8.1,85,0.00,OVC,,0.00,WeatherDisplay:10.37,2014-01-01 01:50:00,
2013-12-31 18:55:00,-3.1,-6.5,30.05,East,90,7.8,9.2,85,0.00,OVC,,0.00,WeatherDisplay:10.37,2014-01-01 01:55:00,
2013-12-31 19:00:00,-3.1,-6.5,30.05,SE,135,4.7,6.9,85,0.00,OVC,,0.00,WeatherDisplay:10.37,2014-01-01 02:00:00,
2013-12-31 19:05:00,-3.1,-6.5,30.07,ESE,112,4.9,5.8,85,0.00,OVC,,0.00,WeatherDisplay:10.37,2014-01-01 02:05:00,
2013-12-31 19:10:00,-2.9,-6.3,30.07,ESE,112,6.2,9.2,85,0.00,OVC,,0.00,WeatherDisplay:10.37,2014-01-01 02:10:00,
2013-12-31 19:15:00,-2.9,-6.3,30.07,ESE,112,9.1,10.4,85,0.00,OVC,,0.00,WeatherDisplay:10.37,2014-01-01 02:15:00,
2013-12-31 19:20:00,-2.9,-6.3,30.07,SE,135,7.8,9.2,85,0.00,OVC,,0.00,WeatherDisplay:10.37,2014-01-01 02:20:00,
2013-12-31 19:25:00,-2.9,-6.3,30.07,ESE,112,5.8,6.3,85,0.00,OVC,,0.00,WeatherDisplay:10.37,2014-01-01 02:25:00,
2013-12-31 19:30:00,-2.9,-6.3,30.06,SE,135,6.4,6.9,85,0.00,OVC,,0.00,WeatherDisplay:10.37,2014-01-01 02:30:00,
2013-12-31 19:35:00,-2.9,-6.3,30.06,ESE,112,7.5,7.5,85,0.00,OVC,,0.00,WeatherDisplay:10.37,2014-01-01 02:35:00,
2013-12-31 19:40:00,-2.9,-6.3,30.06,ESE,112,6.1,10.4,85,0.00,OVC,,0.00,WeatherDisplay:10.37,2014-01-01 02:40:00,
2013-12-31 19:45:00,-2.9,-6.3,30.06,SE,135,6.8,8.1,85,0.00,OVC,,0.00,WeatherDisplay:10.37,2014-01-01 02:45:00,
2013-12-31 19:50:00,-2.9,-6.3,30.06,ESE,112,5.0,5.8,85,0.00,OVC,,0.00,WeatherDisplay:10.37,2014-01-01 02:50:00,
2013-12-31 19:55:00,-2.9,-6.3,30.06,ESE,112,10.2,10.4,85,0.00,OVC,,0.00,WeatherDisplay:10.37,2014-01-01 02:55:00,
2013-12-31 20:00:00,-2.9,-6.3,30.06,ESE,112,6.6,9.2,85,0.00,OVC,,0.00,WeatherDisplay:10.37,2014-01-01 03:00:00,
2013-12-31 20:05:00,-2.9,-6.0,30.06,ESE,112,9.2,11.5,86,0.00,OVC,,0.00,WeatherDisplay:10.37,2014-01-01 03:05:00,
2013-12-31 20:10:00,-2.9,-6.3,30.06,ESE,112,4.6,5.3,85,0.00,OVC,,0.00,WeatherDisplay:10.37,2014-01-01 03:10:00,
2013-12-31 20:15:00,-2.9,-6.3,30.06,SE,135,5.3,5.8,85,0.00,OVC,,0.00,WeatherDisplay:10.37,2014-01-01 03:15:00,
2013-12-31 20:20:00,-2.7,-5.9,30.06,ESE,112,6.8,8.1,86,0.00,OVC,,0.00,WeatherDisplay:10.37,2014-01-01 03:20:00,
2013-12-31 20:25:00,-2.9,-6.3,30.06,SE,135,6.3,8.1,85,0.00,OVC,,0.00,WeatherDisplay:10.37,2014-01-01 03:25:00,
2013-12-31 20:30:00,-2.9,-6.3,30.06,ESE,112,8.0,8.1,85,0.00,OVC,,0.00,WeatherDisplay:10.37,2014-01-01 03:30:00,
2013-12-31 20:35:00,-2.9,-6.3,30.06,SSE,158,7.3,10.4,85,0.00,OVC,,0.00,WeatherDisplay:10.37,2014-01-01 03:35:00,
2013-12-31 20:40:00,-2.9,-6.3,30.06,SE,135,6.2,6.9,85,0.00,OVC,,0.00,WeatherDisplay:10.37,2014-01-01 03:40:00,
2013-12-31 20:45:00,-2.9,-6.3,30.06,SE,135,7.8,10.4,85,0.00,OVC,,0.00,WeatherDisplay:10.37,2014-01-01 03:45:00,
2013-12-31 20:50:00,-2.9,-6.3,30.06,SE,135,8.0,8.3,85,0.00,OVC,,0.00,WeatherDisplay:10.37,2014-01-01 03:50:00,
2013-12-31 20:55:00,-2.9,-6.3,30.06,SSE,158,5.8,8.1,85,0.00,OVC,,0.00,WeatherDisplay:10.37,2014-01-01 03:55:00,
2013-12-31 21:01:00,-2.9,-6.0,30.06,ESE,112,7.3,10.4,86,0.00,OVC,,0.00,WeatherDisplay:10.37,2014-01-01 04:01:00,
2013-12-31 21:06:00,-2.9,-6.0,30.05,ESE,112,7.3,8.1,86,0.00,OVC,,0.00,WeatherDisplay:10.37,2014-01-01 04:06:00,
2013-12-31 21:11:00,-2.7,-5.9,30.05,SE,135,8.8,8.8,86,0.00,OVC,,0.00,WeatherDisplay:10.37,2014-01-01 04:11:00,
2013-12-31 21:16:00,-2.6,-5.8,30.05,ESE,112,5.6,7.3,86,0.00,OVC,,0.00,WeatherDisplay:10.37,2014-01-01 04:16:00,
2013-12-31 21:21:00,-2.4,-5.6,30.06,SSE,158,6.3,6.9,86,0.00,OVC,,0.00,WeatherDisplay:10.37,2014-01-01 04:21:00,
2013-12-31 21:26:00,-2.4,-5.6,30.06,SE,135,8.8,8.8,86,0.00,OVC,,0.00,WeatherDisplay:10.37,2014-01-01 04:26:00,
2013-12-31 21:31:00,-2.2,-5.4,30.05,SE,135,5.9,8.1,86,0.00,OVC,,0.00,WeatherDisplay:10.37,2014-01-01 04:31:00,
2013-12-31 21:36:00,-2.0,-5.2,30.05,ESE,112,6.8,6.8,86,0.00,OVC,,0.00,WeatherDisplay:10.37,2014-01-01 04:36:00,
2013-12-31 21:41:00,-2.0,-5.2,30.05,SE,135,6.0,6.9,86,0.00,OVC,,0.00,WeatherDisplay:10.37,2014-01-01 04:41:00,
2013-12-31 21:46:00,-1.8,-5.0,30.05,SSE,158,8.1,10.4,86,0.00,OVC,,0.00,WeatherDisplay:10.37,2014-01-01 04:46:00,
2013-12-31 21:51:00,-1.8,-5.2,30.05,ESE,112,8.4,10.4,85,0.00,OVC,,0.00,WeatherDisplay:10.37,2014-01-01 04:51:00,
2013-12-31 21:56:00,-1.7,-5.1,30.06,SE,135,4.7,5.8,85,0.00,OVC,,0.00,WeatherDisplay:10.37,2014-01-01 04:56:00,
2013-12-31 22:01:00,-1.7,-5.1,30.06,ESE,112,7.2,8.1,85,0.00,OVC,,0.00,WeatherDisplay:10.37,2014-01-01 05:01:00,
2013-12-31 22:06:00,-1.7,-5.1,30.07,SE,135,5.8,6.9,85,0.00,OVC,,0.00,WeatherDisplay:10.37,2014-01-01 05:06:00,
2013-12-31 22:11:00,-1.7,-5.1,30.07,ESE,112,7.2,8.1,85,0.00,OVC,,0.00,WeatherDisplay:10.37,2014-01-01 05:11:00,
2013-12-31 22:16:00,-1.7,-5.1,30.06,SE,135,5.9,9.2,85,0.00,OVC,,0.00,WeatherDisplay:10.37,2014-01-01 05:16:00,
2013-12-31 22:21:00,-1.7,-5.1,30.06,SE,135,5.7,5.8,85,0.00,OVC,,0.00,WeatherDisplay:10.37,2014-01-01 05:21:00,
2013-12-31 22:26:00,-1.5,-4.9,30.06,SSE,158,6.9,9.2,85,0.00,OVC,,0.00,WeatherDisplay:10.37,2014-01-01 05:26:00,
2013-12-31 22:31:00,-1.3,-4.7,30.06,SE,135,6.2,7.8,85,0.00,OVC,,0.00,WeatherDisplay:10.37,2014-01-01 05:31:00,
2013-12-31 22:36:00,-1.3,-4.7,30.06,SSE,158,7.6,9.2,85,0.00,OVC,,0.00,WeatherDisplay:10.37,2014-01-01 05:36:00,
2013-12-31 22:41:00,-1.3,-4.7,30.06,SE,135,6.5,8.1,85,0.00,OVC,,0.00,WeatherDisplay:10.37,2014-01-01 05:41:00,
2013-12-31 22:46:00,-1.3,-4.7,30.06,SE,135,5.3,5.8,85,0.00,OVC,,0.00,WeatherDisplay:10.37,2014-01-01 05:46:00,
2013-12-31 22:51:00,-1.3,-4.7,30.06,ESE,112,6.6,6.9,85,0.00,OVC,,0.00,WeatherDisplay:10.37,2014-01-01 05:51:00,
2013-12-31 22:56:00,-1.1,-4.5,30.07,SSE,158,6.1,6.8,85,0.00,OVC,,0.00,WeatherDisplay:10.37,2014-01-01 05:56:00,
2013-12-31 23:01:00,-1.1,-4.5,30.07,ESE,112,6.5,6.9,85,0.00,OVC,,0.00,WeatherDisplay:10.37,2014-01-01 06:01:00,
2013-12-31 23:06:00,-0.9,-4.3,30.07,East,90,5.7,6.3,85,0.00,OVC,,0.00,WeatherDisplay:10.37,2014-01-01 06:06:00,
2013-12-31 23:11:00,-0.9,-4.3,30.07,ESE,112,6.6,6.6,85,0.00,OVC,,0.00,WeatherDisplay:10.37,2014-01-01 06:11:00,
2013-12-31 23:14:00,-0.8,-4.2,30.07,ESE,112,6.2,6.9,85,0.00,OVC,,0.00,WeatherDisplay:10.37,2014-01-01 06:14:00,
2013-12-31 23:19:00,-0.6,-3.8,30.07,SE,135,4.2,4.6,86,0.00,OVC,,0.00,WeatherDisplay:10.37,2014-01-01 06:19:00,
2013-12-31 23:24:00,-0.4,-3.6,30.07,SSE,158,4.8,5.8,86,0.00,OVC,,0.00,WeatherDisplay:10.37,2014-01-01 06:24:00,
2013-12-31 23:29:00,-0.4,-3.6,30.06,SE,135,4.9,5.8,86,0.00,OVC,,0.00,WeatherDisplay:10.37,2014-01-01 06:29:00,
2013-12-31 23:34:00,-0.4,-3.6,30.06,SSE,158,5.2,6.9,86,0.00,OVC,,0.00,WeatherDisplay:10.37,2014-01-01 06:34:00,
2013-12-31 23:39:00,-0.2,-3.4,30.06,ESE,112,4.6,8.3,86,0.00,OVC,,0.00,WeatherDisplay:10.37,2014-01-01 06:39:00,
2013-12-31 23:44:00,-0.2,-3.4,30.06,SE,135,3.6,5.8,86,0.00,OVC,,0.00,WeatherDisplay:10.37,2014-01-01 06:44:00,
2013-12-31 23:49:00,0.0,-3.2,30.06,SE,135,5.8,6.9,86,0.00,OVC,,0.00,WeatherDisplay:10.37,2014-01-01 06:49:00,
2013-12-31 23:54:00,0.0,-3.2,30.07,SE,135,4.5,5.8,86,0.00,OVC,,0.00,WeatherDisplay:10.37,2014-01-01 06:54:00,
2013-12-31 23:55:00,0.0,-3.2,30.07,SSE,158,5.7,5.8,86,0.00,OVC,,0.00,WeatherDisplay:10.37,2014-01-01 06:55:00,